createdAt,value
2023-05-10T00:00:18.945Z,5.70
2023-05-10T00:02:46.744Z,5.40
2023-05-10T00:05:13.084Z,5.47
2023-05-10T00:07:39.355Z,5.60
2023-05-10T00:10:05.871Z,4.70
2023-05-10T00:12:32.738Z,5.10
2023-05-10T00:14:58.996Z,5.37
2023-05-10T00:17:25.293Z,5.23
2023-05-10T00:19:51.664Z,5.40
2023-05-10T00:22:17.946Z,5.20
2023-05-10T00:24:44.184Z,5.60
2023-05-10T00:27:10.412Z,5.60
2023-05-10T00:29:36.772Z,5.50
2023-05-10T00:32:03.193Z,5.50
2023-05-10T00:34:29.554Z,4.97
2023-05-10T00:36:55.780Z,5.23
2023-05-10T00:39:22.027Z,5.23
2023-05-10T00:41:48.346Z,5.70
2023-05-10T00:44:15.138Z,5.30
2023-05-10T00:46:42.047Z,5.37
2023-05-10T00:49:08.516Z,4.80
2023-05-10T00:51:34.854Z,6.00
2023-05-10T00:54:01.292Z,5.47
2023-05-10T00:56:27.831Z,6.07
2023-05-10T00:58:54.113Z,5.60
2023-05-10T01:01:20.576Z,5.60
2023-05-10T01:03:47.852Z,5.57
2023-05-10T01:06:14.260Z,5.70
2023-05-10T01:08:40.942Z,5.30
2023-05-10T01:11:07.258Z,6.20
2023-05-10T01:13:37.158Z,6.00
2023-05-10T01:16:04.316Z,5.40
2023-05-10T01:18:32.373Z,5.90
2023-05-10T01:21:17.570Z,6.43
2023-05-10T01:23:43.880Z,6.30
2023-05-10T01:26:17.279Z,5.90
2023-05-10T01:28:58.188Z,6.07
2023-05-10T01:31:40.041Z,5.93
2023-05-10T01:34:10.231Z,6.80
2023-05-10T01:36:42.737Z,6.10
2023-05-10T01:39:12.598Z,6.33
2023-05-10T01:41:58.362Z,6.33
2023-05-10T01:44:30.529Z,5.97
2023-05-10T01:47:03.996Z,6.10
2023-05-10T01:49:32.958Z,6.27
2023-05-10T01:52:01.416Z,6.57
2023-05-10T01:54:28.729Z,5.97
2023-05-10T01:57:01.029Z,6.20
2023-05-10T01:59:30.386Z,6.33
2023-05-10T02:01:58.466Z,6.37
2023-05-10T02:04:25.874Z,6.30
2023-05-10T02:06:53.805Z,6.53
2023-05-10T02:09:20.979Z,6.07
2023-05-10T02:11:48.875Z,5.63
2023-05-10T02:14:16.479Z,6.23
2023-05-10T02:16:43.181Z,6.13
2023-05-10T02:19:10.244Z,6.47
2023-05-10T02:21:36.738Z,6.00
2023-05-10T02:24:03.615Z,6.90
2023-05-10T02:26:30.302Z,6.00
2023-05-10T02:28:57.213Z,6.97
2023-05-10T02:31:23.984Z,5.93
2023-05-10T02:33:50.921Z,6.53
2023-05-10T02:36:17.462Z,6.80
2023-05-10T02:38:44.304Z,6.37
2023-05-10T02:41:11.258Z,6.30
2023-05-10T02:43:38.448Z,6.30
2023-05-10T02:46:04.840Z,6.43
2023-05-10T02:48:31.274Z,5.87
2023-05-10T02:51:01.522Z,6.20
2023-05-10T02:53:32.758Z,6.30
2023-05-10T02:56:01.478Z,5.87
2023-05-10T02:58:27.955Z,5.97
2023-05-10T03:00:54.648Z,5.90
2023-05-10T03:03:20.914Z,6.43
2023-05-10T03:05:47.200Z,6.07
2023-05-10T03:08:13.501Z,6.80
2023-05-10T03:10:46.221Z,6.13
2023-05-10T03:13:20.150Z,6.10
2023-05-10T03:15:59.156Z,5.97
2023-05-10T03:18:45.865Z,6.37
2023-05-10T03:21:13.401Z,7.13
2023-05-10T03:23:41.955Z,5.90
2023-05-10T03:26:08.875Z,6.00
2023-05-10T03:28:35.814Z,5.80
2023-05-10T03:31:03.292Z,5.77
2023-05-10T03:33:29.894Z,5.87
2023-05-10T03:35:56.173Z,6.27
2023-05-10T03:38:22.402Z,5.87
2023-05-10T03:40:48.648Z,5.57
2023-05-10T03:43:14.901Z,5.40
2023-05-10T03:45:41.991Z,6.03
2023-05-10T03:48:08.364Z,5.77
2023-05-10T03:50:34.626Z,5.40
2023-05-10T03:53:00.924Z,5.20
2023-05-10T03:55:27.234Z,5.43
2023-05-10T03:57:54.856Z,5.70
2023-05-10T04:00:21.415Z,5.20
2023-05-10T04:02:47.728Z,5.80
2023-05-10T04:05:14.016Z,5.60
2023-05-10T04:07:40.434Z,5.60
2023-05-10T04:10:07.455Z,5.40
2023-05-10T04:12:33.759Z,5.20
2023-05-10T04:15:00.054Z,5.67
2023-05-10T04:17:26.446Z,5.53
2023-05-10T04:19:55.555Z,5.27
2023-05-10T04:22:21.795Z,5.37
2023-05-10T04:24:48.118Z,5.00
2023-05-10T04:27:14.391Z,5.20
2023-05-10T04:29:40.680Z,5.20
2023-05-10T04:32:06.983Z,4.77
2023-05-10T04:34:35.109Z,4.90
2023-05-10T04:37:01.592Z,5.17
2023-05-10T04:39:27.833Z,4.67
2023-05-10T04:41:54.098Z,5.13
2023-05-10T04:44:20.568Z,4.97
2023-05-10T04:46:47.229Z,4.80
2023-05-10T04:49:13.590Z,4.77
2023-05-10T04:51:40.714Z,4.90
2023-05-10T04:54:07.133Z,5.37
2023-05-10T04:56:33.988Z,4.90
2023-05-10T04:59:00.261Z,5.00
2023-05-10T05:01:26.650Z,5.03
2023-05-10T05:03:53.988Z,4.70
2023-05-10T05:06:21.930Z,4.80
2023-05-10T05:08:50.169Z,4.67
2023-05-10T05:11:16.655Z,4.60
2023-05-10T05:13:42.965Z,4.50
2023-05-10T05:16:09.313Z,4.77
2023-05-10T05:18:35.691Z,5.00
2023-05-10T05:21:02.029Z,4.50
2023-05-10T05:23:28.330Z,4.20
2023-05-10T05:26:00.110Z,4.13
2023-05-10T05:28:26.368Z,4.50
2023-05-10T05:30:53.173Z,4.67
2023-05-10T05:33:19.619Z,4.03
2023-05-10T05:35:51.571Z,4.60
2023-05-10T05:38:18.474Z,4.07
2023-05-10T05:40:46.134Z,4.27
2023-05-10T05:43:12.676Z,4.47
2023-05-10T05:45:38.947Z,4.20
2023-05-10T05:48:05.564Z,3.90
2023-05-10T05:50:32.325Z,4.07
2023-05-10T05:52:58.778Z,3.73
2023-05-10T05:55:26.729Z,3.90
2023-05-10T05:57:52.995Z,4.10
2023-05-10T06:00:19.309Z,3.67
2023-05-10T06:02:46.513Z,3.70
2023-05-10T06:05:12.991Z,4.13
2023-05-10T06:07:39.302Z,4.00
2023-05-10T06:10:06.799Z,3.63
2023-05-10T06:12:33.046Z,3.17
2023-05-10T06:14:59.383Z,3.50
2023-05-10T06:17:26.093Z,3.20
2023-05-10T06:19:52.370Z,3.43
2023-05-10T06:22:18.795Z,3.50
2023-05-10T06:24:45.386Z,3.47
2023-05-10T06:27:11.621Z,3.50
2023-05-10T06:29:37.923Z,3.27
2023-05-10T06:32:04.305Z,3.10
2023-05-10T06:34:30.731Z,3.20
2023-05-10T06:36:57.002Z,2.93
2023-05-10T06:39:23.274Z,3.10
2023-05-10T06:41:49.527Z,2.93
2023-05-10T06:44:15.923Z,2.80
2023-05-10T06:46:42.807Z,2.90
2023-05-10T06:49:09.368Z,2.60
2023-05-10T06:51:35.869Z,2.70
2023-05-10T06:54:02.895Z,2.80
2023-05-10T06:56:29.142Z,2.83
2023-05-10T06:58:55.411Z,2.60
2023-05-10T07:01:21.850Z,2.72
2023-05-10T07:03:48.208Z,2.80
2023-05-10T07:06:29.200Z,2.28
2023-05-10T07:08:59.428Z,2.00
2023-05-10T07:11:25.793Z,2.25
2023-05-10T07:13:52.050Z,1.98
2023-05-10T07:16:18.295Z,2.42
2023-05-10T07:18:44.581Z,2.10
2023-05-10T07:21:10.949Z,2.00
2023-05-10T07:23:37.320Z,2.08
2023-05-10T07:26:03.777Z,2.13
2023-05-10T07:28:30.121Z,2.10
2023-05-10T07:30:56.511Z,1.95
2023-05-10T07:33:22.926Z,1.95
2023-05-10T07:35:49.254Z,1.80
2023-05-10T07:38:15.605Z,1.95
2023-05-10T07:40:41.929Z,1.90
2023-05-10T07:43:08.226Z,1.80
2023-05-10T07:45:34.655Z,2.28
2023-05-10T07:48:01.186Z,2.08
2023-05-10T07:50:27.865Z,1.90
2023-05-10T07:52:54.134Z,1.90
2023-05-10T07:55:22.123Z,2.15
2023-05-10T07:57:48.623Z,2.08
2023-05-10T08:00:18.144Z,1.95
2023-05-10T08:02:44.544Z,2.30
2023-05-10T08:05:11.528Z,2.10
2023-05-10T08:07:37.905Z,2.00
2023-05-10T08:10:04.347Z,2.15
2023-05-10T08:12:31.308Z,2.42
2023-05-10T08:14:58.062Z,2.55
2023-05-10T08:17:24.879Z,2.05
2023-05-10T08:19:51.183Z,2.50
2023-05-10T08:22:17.503Z,2.40
2023-05-10T08:24:43.830Z,2.72
2023-05-10T08:27:10.102Z,2.42
2023-05-10T08:29:48.832Z,2.50
2023-05-10T08:32:16.535Z,2.57
2023-05-10T08:34:42.831Z,2.70
2023-05-10T08:37:09.319Z,2.40
2023-05-10T08:39:36.338Z,2.63
2023-05-10T08:42:03.516Z,2.27
2023-05-10T08:44:31.254Z,2.50
2023-05-10T08:46:58.500Z,2.47
2023-05-10T08:49:27.151Z,2.60
2023-05-10T08:51:55.869Z,2.20
2023-05-10T08:54:23.078Z,2.77
2023-05-10T08:56:49.876Z,2.73
2023-05-10T08:59:16.928Z,2.80
2023-05-10T09:01:45.016Z,2.53
2023-05-10T09:04:11.335Z,2.70
2023-05-10T09:06:38.430Z,2.87
2023-05-10T09:09:04.714Z,2.33
2023-05-10T09:11:31.253Z,2.57
2023-05-10T09:13:57.546Z,2.80
2023-05-10T09:16:24.719Z,2.60
2023-05-10T09:18:51.189Z,2.53
2023-05-10T09:21:17.542Z,2.90
2023-05-10T09:23:46.155Z,2.80
2023-05-10T09:26:14.361Z,2.80
2023-05-10T09:28:53.689Z,2.77
2023-05-10T09:31:20.047Z,2.53
2023-05-10T09:33:49.744Z,2.57
2023-05-10T09:36:16.571Z,2.80
2023-05-10T09:38:46.604Z,2.60
2023-05-10T09:41:19.813Z,2.60
2023-05-10T09:43:46.105Z,2.57
2023-05-10T09:46:12.573Z,2.40
2023-05-10T09:48:46.350Z,2.37
2023-05-10T09:51:22.521Z,2.33
2023-05-10T09:53:51.468Z,2.50
2023-05-10T09:56:33.815Z,2.33
2023-05-10T09:59:03.481Z,2.53
2023-05-10T10:01:30.437Z,2.60
2023-05-10T10:03:58.733Z,2.37
2023-05-10T10:06:30.274Z,2.57
2023-05-10T10:08:57.228Z,2.30
2023-05-10T10:11:24.550Z,2.40
2023-05-10T10:13:50.841Z,2.30
2023-05-10T10:16:17.246Z,2.10
2023-05-10T10:18:43.614Z,2.20
2023-05-10T10:21:10.076Z,2.50
2023-05-10T10:23:36.557Z,2.50
2023-05-10T10:26:03.947Z,2.70
2023-05-10T10:28:40.437Z,2.53
2023-05-10T10:31:16.740Z,3.00
2023-05-10T10:33:48.236Z,2.83
2023-05-10T10:36:15.056Z,2.37
2023-05-10T10:38:47.544Z,2.60
2023-05-10T10:41:32.898Z,2.60
2023-05-10T10:44:18.096Z,2.53
2023-05-10T10:47:03.598Z,2.87
2023-05-10T10:49:34.515Z,2.60
2023-05-10T10:52:19.747Z,2.60
2023-05-10T10:55:12.633Z,2.40
2023-05-10T10:57:42.229Z,2.83
2023-05-10T11:00:22.220Z,2.50
2023-05-10T11:02:52.678Z,2.40
2023-05-10T11:05:39.246Z,2.70
2023-05-10T11:08:11.661Z,2.40
2023-05-10T11:10:38.270Z,2.67
2023-05-10T11:13:05.717Z,2.80
2023-05-10T11:15:32.079Z,2.70
2023-05-10T11:17:58.476Z,2.40
2023-05-10T11:20:33.944Z,2.53
2023-05-10T11:23:12.687Z,2.50
2023-05-10T11:25:45.420Z,2.60
2023-05-10T11:28:12.340Z,2.57
2023-05-10T11:30:42.102Z,2.47
2023-05-10T11:33:09.120Z,2.53
2023-05-10T11:35:42.361Z,3.00
2023-05-10T11:38:10.346Z,2.33
2023-05-10T11:40:37.063Z,2.43
2023-05-10T11:43:03.882Z,2.43
2023-05-10T11:45:32.463Z,2.40
2023-05-10T11:47:59.129Z,2.40
2023-05-10T11:50:25.661Z,2.40
2023-05-10T11:52:55.640Z,2.53
2023-05-10T11:55:22.282Z,2.30
2023-05-10T11:57:48.762Z,2.70
2023-05-10T12:00:15.654Z,2.63
2023-05-10T12:02:42.204Z,2.43
2023-05-10T12:05:08.798Z,2.60
2023-05-10T12:07:35.069Z,2.60
2023-05-10T12:10:08.855Z,2.47
2023-05-10T12:12:45.076Z,2.60
2023-05-10T12:15:12.045Z,2.30
2023-05-10T12:17:39.512Z,2.30
2023-05-10T12:20:16.980Z,2.83
2023-05-10T12:22:53.629Z,2.50
2023-05-10T12:25:21.224Z,2.50
2023-05-10T12:27:54.785Z,2.67
2023-05-10T12:30:24.973Z,2.70
2023-05-10T12:32:51.915Z,2.43
2023-05-10T12:35:21.408Z,2.50
2023-05-10T12:37:47.716Z,2.57
2023-05-10T12:40:14.081Z,2.27
2023-05-10T12:42:40.925Z,2.30
2023-05-10T12:45:07.894Z,2.83
2023-05-10T12:47:34.485Z,2.43
2023-05-10T12:50:01.190Z,2.60
2023-05-10T12:52:28.005Z,2.63
2023-05-10T12:54:54.465Z,2.37
2023-05-10T12:57:21.454Z,2.53
2023-05-10T12:59:47.680Z,2.50
2023-05-10T13:02:15.504Z,2.53
2023-05-10T13:04:42.749Z,2.40
2023-05-10T13:07:09.087Z,2.80
2023-05-10T13:09:35.779Z,3.17
2023-05-10T13:12:02.247Z,2.60
2023-05-10T13:14:28.653Z,2.23
2023-05-10T13:16:55.067Z,2.53
2023-05-10T13:19:21.392Z,2.73
2023-05-10T13:21:47.708Z,2.47
2023-05-10T13:24:17.895Z,2.50
2023-05-10T13:26:44.226Z,2.63
2023-05-10T13:29:10.626Z,2.50
2023-05-10T13:31:36.904Z,2.70
2023-05-10T13:34:03.432Z,2.77
2023-05-10T13:36:29.791Z,2.73
2023-05-10T13:38:56.275Z,2.50
2023-05-10T13:41:22.593Z,2.33
2023-05-10T13:43:49.989Z,2.63
2023-05-10T13:46:16.517Z,2.50
2023-05-10T13:48:42.846Z,2.60
2023-05-10T13:51:09.315Z,2.40
2023-05-10T13:53:35.561Z,2.17
2023-05-10T13:56:03.187Z,2.73
2023-05-10T13:58:29.451Z,2.97
2023-05-10T14:00:56.600Z,2.60
2023-05-10T14:03:22.959Z,2.57
2023-05-10T14:05:49.250Z,2.60
2023-05-10T14:08:15.772Z,2.70
2023-05-10T14:10:42.046Z,2.37
2023-05-10T14:13:08.851Z,2.23
2023-05-10T14:15:35.146Z,2.07
2023-05-10T14:18:01.569Z,2.30
2023-05-10T14:20:27.827Z,2.30
2023-05-10T14:22:54.150Z,2.30
2023-05-10T14:25:20.698Z,2.10
2023-05-10T14:27:47.551Z,2.30
2023-05-10T14:30:13.982Z,2.33
2023-05-10T14:32:40.298Z,2.50
2023-05-10T14:35:07.198Z,2.30
2023-05-10T14:37:33.590Z,2.40
2023-05-10T14:39:59.960Z,2.07
2023-05-10T14:42:26.684Z,2.50
2023-05-10T14:44:52.934Z,2.30
2023-05-10T14:47:19.634Z,2.40
2023-05-10T14:49:45.949Z,2.37
2023-05-10T14:52:13.229Z,2.60
2023-05-10T14:54:39.701Z,2.60
2023-05-10T14:57:06.546Z,2.57
2023-05-10T14:59:32.884Z,2.63
2023-05-10T15:02:00.069Z,2.40
2023-05-10T15:04:28.448Z,2.50
2023-05-10T15:06:59.969Z,2.57
2023-05-10T15:09:26.400Z,2.37
2023-05-10T15:11:52.671Z,2.37
2023-05-10T15:14:18.946Z,2.30
2023-05-10T15:16:45.364Z,2.03
2023-05-10T15:19:11.601Z,2.30
2023-05-10T15:21:39.795Z,2.20
2023-05-10T15:24:06.597Z,2.40
2023-05-10T15:26:33.580Z,2.30
2023-05-10T15:28:59.925Z,2.40
2023-05-10T15:31:26.221Z,2.20
2023-05-10T15:33:52.525Z,2.73
2023-05-10T15:36:18.997Z,2.57
2023-05-10T15:38:45.531Z,2.50
2023-05-10T15:41:12.882Z,2.50
2023-05-10T15:43:39.149Z,2.60
2023-05-10T15:46:06.943Z,2.60
2023-05-10T15:48:33.297Z,2.60
2023-05-10T15:50:59.626Z,2.90
2023-05-10T15:53:26.114Z,2.80
2023-05-10T15:55:52.536Z,2.70
2023-05-10T15:58:19.206Z,2.97
2023-05-10T16:00:45.627Z,2.70
2023-05-10T16:03:12.571Z,2.90
2023-05-10T16:05:38.974Z,2.50
2023-05-10T16:08:05.550Z,2.80
2023-05-10T16:10:33.065Z,2.80
2023-05-10T16:12:59.379Z,3.00
2023-05-10T16:15:25.833Z,3.10
2023-05-10T16:17:52.322Z,3.00
2023-05-10T16:20:18.617Z,3.40
2023-05-10T16:22:44.907Z,3.60
2023-05-10T16:25:13.373Z,5.80
2023-05-10T16:27:40.009Z,6.17
2023-05-10T16:30:06.663Z,5.47
2023-05-10T16:32:33.032Z,4.90
2023-05-10T16:34:59.438Z,5.00
2023-05-10T16:37:26.525Z,4.43
2023-05-10T16:39:52.773Z,4.57
2023-05-10T16:42:19.022Z,4.50
2023-05-10T16:44:45.379Z,4.13
2023-05-10T16:47:11.610Z,4.37
2023-05-10T16:49:37.869Z,4.30
2023-05-10T16:52:04.223Z,4.70
2023-05-10T16:54:31.042Z,4.13
2023-05-10T16:56:57.278Z,4.47
2023-05-10T16:59:23.582Z,4.37
2023-05-10T17:01:50.199Z,4.83
2023-05-10T17:04:16.717Z,4.70
2023-05-10T17:06:43.029Z,4.17
2023-05-10T17:09:09.557Z,4.37
2023-05-10T17:11:35.964Z,4.40
2023-05-10T17:14:02.242Z,4.67
2023-05-10T17:16:29.218Z,4.53
2023-05-10T17:18:55.625Z,4.40
2023-05-10T17:21:21.943Z,4.43
2023-05-10T17:23:48.330Z,4.80
2023-05-10T17:26:14.576Z,4.27
2023-05-10T17:28:40.929Z,4.60
2023-05-10T17:31:07.540Z,4.30
2023-05-10T17:33:33.826Z,4.73
2023-05-10T17:36:00.137Z,4.70
2023-05-10T17:38:26.468Z,4.27
2023-05-10T17:40:52.708Z,4.40
2023-05-10T17:43:20.299Z,4.73
2023-05-10T17:45:48.181Z,4.50
2023-05-10T17:48:14.461Z,4.57
2023-05-10T17:50:43.549Z,4.63
2023-05-10T17:53:10.013Z,4.50
2023-05-10T17:55:36.498Z,4.50
2023-05-10T17:58:02.720Z,4.30
2023-05-10T18:00:29.120Z,4.47
2023-05-10T18:02:55.486Z,4.80
2023-05-10T18:05:22.347Z,4.53
2023-05-10T18:07:49.040Z,4.20
2023-05-10T18:10:15.461Z,4.47
2023-05-10T18:12:41.805Z,4.50
2023-05-10T18:15:08.286Z,4.93
2023-05-10T18:17:35.001Z,4.50
2023-05-10T18:20:02.181Z,4.30
2023-05-10T18:22:28.525Z,4.47
2023-05-10T18:24:54.844Z,4.70
2023-05-10T18:27:21.079Z,5.10
2023-05-10T18:29:47.333Z,4.50
2023-05-10T18:32:13.591Z,4.70
2023-05-10T18:34:39.874Z,4.90
2023-05-10T18:37:07.457Z,4.57
2023-05-10T18:39:34.149Z,4.30
2023-05-10T18:42:00.399Z,4.67
2023-05-10T18:44:26.974Z,5.03
2023-05-10T18:46:54.227Z,4.40
2023-05-10T18:49:20.488Z,4.60
2023-05-10T18:51:47.196Z,4.63
2023-05-10T18:54:14.198Z,5.00
2023-05-10T18:56:44.448Z,4.77
2023-05-10T18:59:11.642Z,4.80
2023-05-10T19:01:38.119Z,4.73
2023-05-10T19:04:04.508Z,4.90
2023-05-10T19:06:31.331Z,5.07
2023-05-10T19:08:57.592Z,5.13
2023-05-10T19:11:23.838Z,4.80
2023-05-10T19:13:50.093Z,4.83
2023-05-10T19:16:16.869Z,5.13
2023-05-10T19:18:44.995Z,4.70
2023-05-10T19:21:11.442Z,4.80
2023-05-10T19:23:41.956Z,5.30
2023-05-10T19:26:09.552Z,5.50
2023-05-10T19:28:35.777Z,5.70
2023-05-10T19:31:02.328Z,5.00
2023-05-10T19:33:28.680Z,5.43
2023-05-10T19:35:55.450Z,5.13
2023-05-10T19:38:22.462Z,5.53
2023-05-10T19:40:49.886Z,5.33
2023-05-10T19:43:16.522Z,5.30
2023-05-10T19:45:42.864Z,5.10
2023-05-10T19:48:09.206Z,6.03
2023-05-10T19:50:35.582Z,5.80
2023-05-10T19:53:01.880Z,6.00
2023-05-10T19:55:29.445Z,5.97
2023-05-10T19:57:55.799Z,6.33
2023-05-10T20:00:23.061Z,6.80
2023-05-10T20:02:49.747Z,6.27
2023-05-10T20:05:16.193Z,6.40
2023-05-10T20:07:42.777Z,6.20
2023-05-10T20:10:09.510Z,6.30
2023-05-10T20:12:36.399Z,6.07
2023-05-10T20:15:03.709Z,6.10
2023-05-10T20:17:29.950Z,6.47
2023-05-10T20:19:56.194Z,6.83
2023-05-10T20:22:22.453Z,6.73
2023-05-10T20:24:48.785Z,6.90
2023-05-10T20:27:15.032Z,7.17
2023-05-10T20:29:41.605Z,7.50
2023-05-10T20:32:07.860Z,7.57
2023-05-10T20:34:34.588Z,7.20
2023-05-10T20:37:00.921Z,6.57
2023-05-10T20:39:27.418Z,7.73
2023-05-10T20:41:54.652Z,6.90
2023-05-10T20:44:20.909Z,7.10
2023-05-10T20:46:47.227Z,7.03
2023-05-10T20:49:13.945Z,6.73
2023-05-10T20:51:40.336Z,6.80
2023-05-10T20:54:06.883Z,7.30
2023-05-10T20:56:33.903Z,7.10
2023-05-10T20:59:00.289Z,6.57
2023-05-10T21:01:26.659Z,6.27
2023-05-10T21:03:52.976Z,6.37
2023-05-10T21:06:20.096Z,6.50
2023-05-10T21:08:46.677Z,6.27
2023-05-10T21:11:13.160Z,6.20
2023-05-10T21:13:39.428Z,6.43
2023-05-10T21:16:05.749Z,6.60
2023-05-10T21:18:32.065Z,6.63
2023-05-10T21:20:58.586Z,6.43
2023-05-10T21:23:24.885Z,6.30
2023-05-10T21:25:51.180Z,5.90
2023-05-10T21:28:17.528Z,6.80
2023-05-10T21:30:43.978Z,5.80
2023-05-10T21:33:10.212Z,6.33
2023-05-10T21:35:39.332Z,6.30
2023-05-10T21:38:05.641Z,6.40
2023-05-10T21:40:31.880Z,6.30
2023-05-10T21:42:58.395Z,6.50
2023-05-10T21:45:24.696Z,6.43
2023-05-10T21:47:51.019Z,6.83
2023-05-10T21:50:17.651Z,6.10
2023-05-10T21:52:44.235Z,6.13
2023-05-10T21:55:10.552Z,6.67
2023-05-10T21:57:36.839Z,6.07
2023-05-10T22:00:03.679Z,6.00
2023-05-10T22:02:30.050Z,5.47
2023-05-10T22:04:56.681Z,5.97
2023-05-10T22:07:23.026Z,5.40
2023-05-10T22:09:49.334Z,5.57
2023-05-10T22:12:15.611Z,6.03
2023-05-10T22:14:41.854Z,6.00
2023-05-10T22:17:08.385Z,5.97
2023-05-10T22:19:34.755Z,5.33
2023-05-10T22:22:01.048Z,5.20
2023-05-10T22:24:27.471Z,5.37
2023-05-10T22:26:54.210Z,5.43
2023-05-10T22:29:20.440Z,5.50
2023-05-10T22:31:46.728Z,5.33
2023-05-10T22:34:12.984Z,5.50
2023-05-10T22:36:39.218Z,5.20
2023-05-10T22:39:05.621Z,5.37
2023-05-10T22:41:32.877Z,5.13
2023-05-10T22:43:59.111Z,5.67
2023-05-10T22:46:25.640Z,5.07
2023-05-10T22:48:52.379Z,5.40
2023-05-10T22:51:18.621Z,5.60
2023-05-10T22:53:45.016Z,5.90
2023-05-10T22:56:11.313Z,5.13
2023-05-10T22:58:37.573Z,5.60
2023-05-10T23:01:03.920Z,5.13
2023-05-10T23:03:30.502Z,5.73
2023-05-10T23:05:56.770Z,5.50
2023-05-10T23:08:23.120Z,5.80
2023-05-10T23:10:49.423Z,5.77
2023-05-10T23:13:15.660Z,5.73
2023-05-10T23:15:43.499Z,5.60
2023-05-10T23:18:09.929Z,6.27
2023-05-10T23:20:36.409Z,5.57
2023-05-10T23:23:02.705Z,5.40
2023-05-10T23:25:29.107Z,5.47
2023-05-10T23:27:55.434Z,5.77
2023-05-10T23:30:21.661Z,5.33
2023-05-10T23:32:48.123Z,6.13
2023-05-10T23:35:14.380Z,5.70
2023-05-10T23:37:42.000Z,5.70
2023-05-10T23:40:08.596Z,6.23
2023-05-10T23:42:34.976Z,6.93
2023-05-10T23:45:01.323Z,7.10
2023-05-10T23:47:27.634Z,7.10
2023-05-10T23:49:53.956Z,7.23
2023-05-10T23:52:24.763Z,6.83
2023-05-10T23:54:51.316Z,7.07
2023-05-10T23:57:17.640Z,6.70
2023-05-10T23:59:43.902Z,7.00
